sensor_id;sensor_type;location;lat;lon;timestamp;pressure;altitude;pressure_sealevel;temperature;humidity
21588;BME280;10956;48.878;13.316;2023-02-13T00:01:33;96049.03;;;3.27;100.00
21588;BME280;10956;48.878;13.316;2023-02-13T00:03:59;96049.03;;;3.27;100.00
21588;BME280;10956;48.878;13.316;2023-02-13T00:06:24;96052.47;;;3.28;100.00
21588;BME280;10956;48.878;13.316;2023-02-13T00:08:50;96057.56;;;3.21;100.00
21588;BME280;10956;48.878;13.316;2023-02-13T00:11:15;96040.13;;;3.21;100.00
21588;BME280;10956;48.878;13.316;2023-02-13T00:13:41;96041.91;;;3.21;100.00
21588;BME280;10956;48.878;13.316;2023-02-13T00:16:07;96037.00;;;3.26;100.00
21588;BME280;10956;48.878;13.316;2023-02-13T00:18:35;96037.28;;;3.31;100.00
21588;BME280;10956;48.878;13.316;2023-02-13T00:21:07;96034.03;;;3.29;100.00
21588;BME280;10956;48.878;13.316;2023-02-13T00:23:34;96041.34;;;3.34;100.00
21588;BME280;10956;48.878;13.316;2023-02-13T00:26:03;96040.88;;;3.30;100.00
21588;BME280;10956;48.878;13.316;2023-02-13T00:28:29;96053.25;;;3.28;100.00
21588;BME280;10956;48.878;13.316;2023-02-13T00:31:05;96039.78;;;3.24;100.00
21588;BME280;10956;48.878;13.316;2023-02-13T00:33:31;96041.56;;;3.24;100.00
21588;BME280;10956;48.878;13.316;2023-02-13T00:36:14;96039.59;;;3.26;100.00
21588;BME280;10956;48.878;13.316;2023-02-13T00:38:41;96042.50;;;3.31;100.00
21588;BME280;10956;48.878;13.316;2023-02-13T00:41:07;96048.97;;;3.35;100.00
21588;BME280;10956;48.878;13.316;2023-02-13T00:43:34;96046.03;;;3.38;100.00
21588;BME280;10956;48.878;13.316;2023-02-13T00:46:00;96050.25;;;3.39;100.00
21588;BME280;10956;48.878;13.316;2023-02-13T00:48:27;96056.91;;;3.42;100.00
21588;BME280;10956;48.878;13.316;2023-02-13T00:50:53;96050.25;;;3.39;100.00
21588;BME280;10956;48.878;13.316;2023-02-13T00:53:23;96060.38;;;3.34;100.00
21588;BME280;10956;48.878;13.316;2023-02-13T00:55:49;96057.78;;;3.34;100.00
21588;BME280;10956;48.878;13.316;2023-02-13T00:58:16;96064.25;;;3.38;100.00
21588;BME280;10956;48.878;13.316;2023-02-13T01:00:42;96058.41;;;3.36;100.00
21588;BME280;10956;48.878;13.316;2023-02-13T01:03:07;96063.00;;;3.34;100.00
21588;BME280;10956;48.878;13.316;2023-02-13T01:05:33;96057.31;;;3.31;100.00
21588;BME280;10956;48.878;13.316;2023-02-13T01:07:59;96055.53;;;3.31;100.00
21588;BME280;10956;48.878;13.316;2023-02-13T01:10:24;96064.78;;;3.34;100.00
21588;BME280;10956;48.878;13.316;2023-02-13T01:12:50;96067.03;;;3.37;100.00
21588;BME280;10956;48.878;13.316;2023-02-13T01:15:16;96056.78;;;3.35;100.00
21588;BME280;10956;48.878;13.316;2023-02-13T01:17:41;96054.19;;;3.35;100.00
21588;BME280;10956;48.878;13.316;2023-02-13T01:20:09;96057.78;;;3.34;100.00
21588;BME280;10956;48.878;13.316;2023-02-13T01:22:35;96053.38;;;3.35;100.00
21588;BME280;10956;48.878;13.316;2023-02-13T01:25:01;96049.44;;;3.39;100.00
21588;BME280;10956;48.878;13.316;2023-02-13T01:27:27;96055.09;;;3.42;100.00
21588;BME280;10956;48.878;13.316;2023-02-13T01:29:53;96049.72;;;3.44;100.00
21588;BME280;10956;48.878;13.316;2023-02-13T01:32:19;96051.16;;;3.46;100.00
21588;BME280;10956;48.878;13.316;2023-02-13T01:34:45;96048.56;;;3.46;100.00
21588;BME280;10956;48.878;13.316;2023-02-13T01:37:10;96043.06;;;3.41;100.00
21588;BME280;10956;48.878;13.316;2023-02-13T01:39:36;96047.47;;;3.41;100.00
21588;BME280;10956;48.878;13.316;2023-02-13T01:42:02;96047.09;;;3.44;100.00
21588;BME280;10956;48.878;13.316;2023-02-13T01:47:17;96041.38;;;3.48;100.00
21588;BME280;10956;48.878;13.316;2023-02-13T01:49:45;96043.63;;;3.51;100.00
21588;BME280;10956;48.878;13.316;2023-02-13T01:52:12;96041.00;;;3.51;100.00
21588;BME280;10956;48.878;13.316;2023-02-13T01:54:38;96037.59;;;3.51;100.00
21588;BME280;10956;48.878;13.316;2023-02-13T01:57:16;96042.34;;;3.47;100.00
21588;BME280;10956;48.878;13.316;2023-02-13T01:59:47;96034.09;;;3.44;100.00
21588;BME280;10956;48.878;13.316;2023-02-13T02:02:14;96039.81;;;3.39;100.00
21588;BME280;10956;48.878;13.316;2023-02-13T02:04:41;96042.59;;;3.38;100.00
21588;BME280;10956;48.878;13.316;2023-02-13T02:07:16;96038.19;;;3.38;100.00
21588;BME280;10956;48.878;13.316;2023-02-13T02:09:43;96037.03;;;3.41;100.00
21588;BME280;10956;48.878;13.316;2023-02-13T02:12:24;96036.22;;;3.40;100.00
21588;BME280;10956;48.878;13.316;2023-02-13T02:14:52;96038.03;;;3.40;100.00
21588;BME280;10956;48.878;13.316;2023-02-13T02:17:20;96036.22;;;3.40;100.00
21588;BME280;10956;48.878;13.316;2023-02-13T02:19:58;96027.41;;;3.41;100.00
21588;BME280;10956;48.878;13.316;2023-02-13T02:31:50;96016.28;;;3.47;100.00
21588;BME280;10956;48.878;13.316;2023-02-13T02:34:45;96017.09;;;3.48;100.00
21588;BME280;10956;48.878;13.316;2023-02-13T02:37:29;96017.56;;;3.51;100.00
21588;BME280;10956;48.878;13.316;2023-02-13T02:55:49;95994.47;;;3.63;100.00
21588;BME280;10956;48.878;13.316;2023-02-13T03:01:02;96002.28;;;3.63;100.00
21588;BME280;10956;48.878;13.316;2023-02-13T03:03:48;96009.66;;;3.60;100.00
21588;BME280;10956;48.878;13.316;2023-02-13T03:06:55;95995.53;;;3.54;100.00
21588;BME280;10956;48.878;13.316;2023-02-13T03:09:30;96001.56;;;3.54;100.00
21588;BME280;10956;48.878;13.316;2023-02-13T03:12:21;96008.84;;;3.59;100.00
21588;BME280;10956;48.878;13.316;2023-02-13T03:15:07;96004.00;;;3.56;100.00
21588;BME280;10956;48.878;13.316;2023-02-13T03:17:33;96005.88;;;3.47;100.00
21588;BME280;10956;48.878;13.316;2023-02-13T03:20:44;96006.56;;;3.41;100.00
21588;BME280;10956;48.878;13.316;2023-02-13T03:23:50;96007.03;;;3.45;100.00
21588;BME280;10956;48.878;13.316;2023-02-13T03:26:49;96016.28;;;3.47;100.00
21588;BME280;10956;48.878;13.316;2023-02-13T03:35:21;96018.53;;;3.50;100.00
21588;BME280;10956;48.878;13.316;2023-02-13T03:38:24;96012.34;;;3.51;100.00
21588;BME280;10956;48.878;13.316;2023-02-13T03:41:01;96010.00;;;3.56;100.00
21588;BME280;10956;48.878;13.316;2023-02-13T03:46:20;96006.78;;;3.54;100.00
21588;BME280;10956;48.878;13.316;2023-02-13T03:48:46;96004.44;;;3.60;100.00
21588;BME280;10956;48.878;13.316;2023-02-13T03:51:36;96011.28;;;3.61;100.00
21588;BME280;10956;48.878;13.316;2023-02-13T03:54:12;96009.47;;;3.61;100.00
21588;BME280;10956;48.878;13.316;2023-02-13T03:56:41;96012.53;;;3.65;100.00
21588;BME280;10956;48.878;13.316;2023-02-13T03:59:29;96007.50;;;3.63;100.00
21588;BME280;10956;48.878;13.316;2023-02-13T04:02:10;96007.94;;;3.52;100.00
21588;BME280;10956;48.878;13.316;2023-02-13T04:04:45;96010.78;;;3.42;100.00
21588;BME280;10956;48.878;13.316;2023-02-13T04:07:16;96003.69;;;3.36;100.00
21588;BME280;10956;48.878;13.316;2023-02-13T04:10:00;95996.41;;;3.32;100.00
21588;BME280;10956;48.878;13.316;2023-02-13T04:12:47;95988.41;;;3.33;100.00
21588;BME280;10956;48.878;13.316;2023-02-13T04:15:19;95986.88;;;3.39;100.00
21588;BME280;10956;48.878;13.316;2023-02-13T04:18:00;95988.16;;;3.43;100.00
21588;BME280;10956;48.878;13.316;2023-02-13T04:20:27;95987.78;;;3.46;100.00
21588;BME280;10956;48.878;13.316;2023-02-13T04:22:54;95981.06;;;3.51;100.00
21588;BME280;10956;48.878;13.316;2023-02-13T04:25:23;95988.69;;;3.53;100.00
21588;BME280;10956;48.878;13.316;2023-02-13T04:27:48;95992.75;;;3.55;100.00
21588;BME280;10956;48.878;13.316;2023-02-13T04:30:14;95995.34;;;3.55;100.00
21588;BME280;10956;48.878;13.316;2023-02-13T04:32:39;95991.66;;;3.50;100.00
21588;BME280;10956;48.878;13.316;2023-02-13T04:35:05;95985.38;;;3.44;100.00
21588;BME280;10956;48.878;13.316;2023-02-13T04:37:30;95989.94;;;3.42;100.00
21588;BME280;10956;48.878;13.316;2023-02-13T04:39:56;95982.13;;;3.42;100.00
21588;BME280;10956;48.878;13.316;2023-02-13T04:42:21;95989.78;;;3.44;100.00
21588;BME280;10956;48.878;13.316;2023-02-13T04:44:46;95993.19;;;3.44;100.00
21588;BME280;10956;48.878;13.316;2023-02-13T04:47:12;95992.84;;;3.47;100.00
21588;BME280;10956;48.878;13.316;2023-02-13T04:49:37;95996.78;;;3.43;100.00
21588;BME280;10956;48.878;13.316;2023-02-13T04:52:03;95999.38;;;3.43;100.00
21588;BME280;10956;48.878;13.316;2023-02-13T04:54:28;95999.03;;;3.46;100.00
21588;BME280;10956;48.878;13.316;2023-02-13T04:56:53;96002.28;;;3.48;100.00
21588;BME280;10956;48.878;13.316;2023-02-13T04:59:19;96003.97;;;3.41;100.00
21588;BME280;10956;48.878;13.316;2023-02-13T05:01:44;95992.09;;;3.39;100.00
21588;BME280;10956;48.878;13.316;2023-02-13T05:04:09;95990.47;;;3.38;100.00
21588;BME280;10956;48.878;13.316;2023-02-13T05:06:40;95993.72;;;3.40;100.00
21588;BME280;10956;48.878;13.316;2023-02-13T05:09:05;95979.69;;;3.41;100.00
21588;BME280;10956;48.878;13.316;2023-02-13T05:11:31;95991.38;;;3.45;100.00
21588;BME280;10956;48.878;13.316;2023-02-13T05:13:56;95999.22;;;3.45;100.00
21588;BME280;10956;48.878;13.316;2023-02-13T05:16:22;95994.16;;;3.43;100.00
21588;BME280;10956;48.878;13.316;2023-02-13T05:18:47;95985.38;;;3.44;100.00
21588;BME280;10956;48.878;13.316;2023-02-13T05:21:12;95993.00;;;3.46;100.00
21588;BME280;10956;48.878;13.316;2023-02-13T05:23:56;95996.59;;;3.45;100.00
21588;BME280;10956;48.878;13.316;2023-02-13T05:26:22;95992.19;;;3.45;100.00
21588;BME280;10956;48.878;13.316;2023-02-13T05:28:47;95987.00;;;3.45;100.00
21588;BME280;10956;48.878;13.316;2023-02-13T05:31:31;95995.78;;;3.44;100.00
21588;BME280;10956;48.878;13.316;2023-02-13T05:33:56;95997.41;;;3.45;100.00
21588;BME280;10956;48.878;13.316;2023-02-13T05:36:22;96001.00;;;3.44;100.00
21588;BME280;10956;48.878;13.316;2023-02-13T05:38:47;96003.44;;;3.46;100.00
21588;BME280;10956;48.878;13.316;2023-02-13T05:41:13;96004.25;;;3.46;100.00
21588;BME280;10956;48.878;13.316;2023-02-13T05:43:38;96006.69;;;3.48;100.00
21588;BME280;10956;48.878;13.316;2023-02-13T05:46:05;96010.72;;;3.50;100.00
21588;BME280;10956;48.878;13.316;2023-02-13T05:48:31;96009.28;;;3.48;100.00
21588;BME280;10956;48.878;13.316;2023-02-13T05:50:56;96004.25;;;3.46;100.00
21588;BME280;10956;48.878;13.316;2023-02-13T05:53:22;96007.38;;;3.42;100.00
21588;BME280;10956;48.878;13.316;2023-02-13T05:55:47;96017.28;;;3.46;100.00
21588;BME280;10956;48.878;13.316;2023-02-13T05:58:15;96017.09;;;3.48;100.00
21588;BME280;10956;48.878;13.316;2023-02-13T06:00:40;96019.53;;;3.49;100.00
21588;BME280;10956;48.878;13.316;2023-02-13T06:03:05;96016.75;;;3.51;100.00
21588;BME280;10956;48.878;13.316;2023-02-13T06:05:31;96014.78;;;3.53;100.00
21588;BME280;10956;48.878;13.316;2023-02-13T06:07:56;96008.75;;;3.52;100.00
21588;BME280;10956;48.878;13.316;2023-02-13T06:10:21;96018.81;;;3.55;100.00
21588;BME280;10956;48.878;13.316;2023-02-13T06:12:47;96020.16;;;3.51;100.00
21588;BME280;10956;48.878;13.316;2023-02-13T06:15:12;96026.38;;;3.50;100.00
21588;BME280;10956;48.878;13.316;2023-02-13T06:17:38;96023.13;;;3.48;100.00
21588;BME280;10956;48.878;13.316;2023-02-13T06:20:04;96024.91;;;3.48;100.00
21588;BME280;10956;48.878;13.316;2023-02-13T06:22:30;96029.97;;;3.49;100.00
21588;BME280;10956;48.878;13.316;2023-02-13T06:24:55;96030.59;;;3.51;100.00
21588;BME280;10956;48.878;13.316;2023-02-13T06:27:20;96028.44;;;3.55;100.00
21588;BME280;10956;48.878;13.316;2023-02-13T06:29:46;96039.69;;;3.55;100.00
21588;BME280;10956;48.878;13.316;2023-02-13T06:32:12;96039.22;;;3.52;100.00
21588;BME280;10956;48.878;13.316;2023-02-13T06:34:38;96043.63;;;3.51;100.00
21588;BME280;10956;48.878;13.316;2023-02-13T06:37:03;96041.00;;;3.51;100.00
21588;BME280;10956;48.878;13.316;2023-02-13T06:39:29;96046.88;;;3.53;100.00
21588;BME280;10956;48.878;13.316;2023-02-13T06:41:54;96048.84;;;3.51;100.00
21588;BME280;10956;48.878;13.316;2023-02-13T06:44:19;96042.00;;;3.50;100.00
21588;BME280;10956;48.878;13.316;2023-02-13T06:46:45;96049.47;;;3.53;100.00
21588;BME280;10956;48.878;13.316;2023-02-13T06:49:10;96048.47;;;3.54;100.00
21588;BME280;10956;48.878;13.316;2023-02-13T06:51:36;96046.06;;;3.53;100.00
21588;BME280;10956;48.878;13.316;2023-02-13T06:54:01;96042.91;;;3.58;100.00
21588;BME280;10956;48.878;13.316;2023-02-13T06:56:27;96046.16;;;3.60;100.00
21588;BME280;10956;48.878;13.316;2023-02-13T06:58:52;96051.38;;;3.60;100.00
21588;BME280;10956;48.878;13.316;2023-02-13T07:01:18;96047.78;;;3.61;100.00
21588;BME280;10956;48.878;13.316;2023-02-13T07:03:43;96059.81;;;3.62;100.00
21588;BME280;10956;48.878;13.316;2023-02-13T07:06:09;96056.22;;;3.63;100.00
21588;BME280;10956;48.878;13.316;2023-02-13T07:08:35;96061.91;;;3.66;100.00
21588;BME280;10956;48.878;13.316;2023-02-13T07:11:00;96068.28;;;3.64;100.00
21588;BME280;10956;48.878;13.316;2023-02-13T07:13:26;96069.28;;;3.63;100.00
21588;BME280;10956;48.878;13.316;2023-02-13T07:15:51;96071.88;;;3.63;100.00
21588;BME280;10956;48.878;13.316;2023-02-13T07:18:16;96064.88;;;3.63;100.00
21588;BME280;10956;48.878;13.316;2023-02-13T07:20:42;96073.50;;;3.64;100.00
21588;BME280;10956;48.878;13.316;2023-02-13T07:23:07;96077.91;;;3.63;100.00
21588;BME280;10956;48.878;13.316;2023-02-13T07:25:33;96085.53;;;3.65;100.00
21588;BME280;10956;48.878;13.316;2023-02-13T07:28:05;96081.94;;;3.66;100.00
21588;BME280;10956;48.878;13.316;2023-02-13T07:30:32;96085.19;;;3.68;100.00
21588;BME280;10956;48.878;13.316;2023-02-13T07:32:59;96090.06;;;3.71;100.00
21588;BME280;10956;48.878;13.316;2023-02-13T07:35:25;96077.28;;;3.76;100.00
21588;BME280;10956;48.878;13.316;2023-02-13T07:37:52;96087.38;;;3.79;100.00
21588;BME280;10956;48.878;13.316;2023-02-13T07:40:17;96087.09;;;3.74;100.00
21588;BME280;10956;48.878;13.316;2023-02-13T07:42:43;96083.22;;;3.70;100.00
21588;BME280;10956;48.878;13.316;2023-02-13T07:45:08;96081.88;;;3.74;100.00
21588;BME280;10956;48.878;13.316;2023-02-13T07:47:35;96090.97;;;3.78;100.00
21588;BME280;10956;48.878;13.316;2023-02-13T07:50:02;96081.44;;;3.85;100.00
21588;BME280;10956;48.878;13.316;2023-02-13T07:52:30;96097.56;;;3.88;100.00
21588;BME280;10956;48.878;13.316;2023-02-13T07:54:55;96084.69;;;3.87;100.00
21588;BME280;10956;48.878;13.316;2023-02-13T07:57:21;96085.50;;;3.87;100.00
21588;BME280;10956;48.878;13.316;2023-02-13T07:59:46;96087.13;;;3.88;100.00
21588;BME280;10956;48.878;13.316;2023-02-13T08:02:13;96088.03;;;3.96;100.00
21588;BME280;10956;48.878;13.316;2023-02-13T08:04:39;96092.88;;;3.99;100.00
21588;BME280;10956;48.878;13.316;2023-02-13T08:07:04;96096.31;;;3.99;100.00
21588;BME280;10956;48.878;13.316;2023-02-13T08:09:30;96092.19;;;4.05;100.00
21588;BME280;10956;48.878;13.316;2023-02-13T08:12:14;96094.97;;;4.03;100.00
21588;BME280;10956;48.878;13.316;2023-02-13T08:14:39;96089.75;;;4.03;100.00
21588;BME280;10956;48.878;13.316;2023-02-13T08:17:05;96092.06;;;3.98;100.00
21588;BME280;10956;48.878;13.316;2023-02-13T08:19:30;96093.25;;;3.96;100.00
21588;BME280;10956;48.878;13.316;2023-02-13T08:21:55;96092.53;;;4.02;100.00
21588;BME280;10956;48.878;13.316;2023-02-13T08:24:22;96094.97;;;4.03;100.00
21588;BME280;10956;48.878;13.316;2023-02-13T08:26:47;96094.59;;;4.06;100.00
21588;BME280;10956;48.878;13.316;2023-02-13T08:29:13;96093.63;;;4.07;100.00
21588;BME280;10956;48.878;13.316;2023-02-13T08:31:38;96088.13;;;4.02;100.00
21588;BME280;10956;48.878;13.316;2023-02-13T08:34:03;96096.94;;;4.01;100.00
21588;BME280;10956;48.878;13.316;2023-02-13T08:36:29;96094.97;;;4.03;100.00
21588;BME280;10956;48.878;13.316;2023-02-13T08:38:55;96097.50;;;4.11;100.00
21588;BME280;10956;48.878;13.316;2023-02-13T08:41:20;96102.44;;;4.21;100.00
21588;BME280;10956;48.878;13.316;2023-02-13T08:43:47;96099.75;;;4.29;100.00
21588;BME280;10956;48.878;13.316;2023-02-13T08:46:13;96095.88;;;4.40;100.00
21588;BME280;10956;48.878;13.316;2023-02-13T08:48:38;96103.63;;;4.48;100.00
21588;BME280;10956;48.878;13.316;2023-02-13T08:51:06;96098.03;;;4.51;100.00
21588;BME280;10956;48.878;13.316;2023-02-13T08:53:32;96091.72;;;4.60;100.00
21588;BME280;10956;48.878;13.316;2023-02-13T08:55:58;96097.84;;;4.52;100.00
21588;BME280;10956;48.878;13.316;2023-02-13T08:58:23;96098.94;;;4.58;100.00
21588;BME280;10956;48.878;13.316;2023-02-13T09:00:49;96107.09;;;4.70;100.00
21588;BME280;10956;48.878;13.316;2023-02-13T09:03:15;96109.44;;;4.79;100.00
21588;BME280;10956;48.878;13.316;2023-02-13T09:05:40;96103.38;;;4.94;100.00
21588;BME280;10956;48.878;13.316;2023-02-13T09:08:06;96105.25;;;5.00;100.00
21588;BME280;10956;48.878;13.316;2023-02-13T09:10:33;96098.28;;;5.07;100.00
21588;BME280;10956;48.878;13.316;2023-02-13T09:12:58;96099.78;;;5.16;100.00
21588;BME280;10956;48.878;13.316;2023-02-13T09:15:25;96101.66;;;5.22;100.00
21588;BME280;10956;48.878;13.316;2023-02-13T09:17:51;96100.91;;;5.28;100.00
21588;BME280;10956;48.878;13.316;2023-02-13T09:20:16;96094.94;;;5.34;100.00
21588;BME280;10956;48.878;13.316;2023-02-13T09:22:42;96095.56;;;5.36;100.00
21588;BME280;10956;48.878;13.316;2023-02-13T09:25:08;96095.00;;;5.41;100.00
21588;BME280;10956;48.878;13.316;2023-02-13T09:27:34;96102.66;;;5.42;100.00
21588;BME280;10956;48.878;13.316;2023-02-13T09:30:00;96095.06;;;5.47;100.00
21588;BME280;10956;48.878;13.316;2023-02-13T09:32:26;96091.09;;;5.51;100.00
21588;BME280;10956;48.878;13.316;2023-02-13T09:34:52;96092.31;;;5.56;100.00
21588;BME280;10956;48.878;13.316;2023-02-13T09:37:17;96097.56;;;5.56;100.00
21588;BME280;10956;48.878;13.316;2023-02-13T09:39:43;96091.94;;;5.59;100.00
21588;BME280;10956;48.878;13.316;2023-02-13T09:42:18;96100.03;;;5.64;100.00
21588;BME280;10956;48.878;13.316;2023-02-13T09:44:45;96102.91;;;5.69;100.00
21588;BME280;10956;48.878;13.316;2023-02-13T09:47:29;96101.28;;;5.68;100.00
21588;BME280;10956;48.878;13.316;2023-02-13T09:50:31;96109.38;;;5.73;100.00
21588;BME280;10956;48.878;13.316;2023-02-13T09:52:59;96102.34;;;5.73;100.00
21588;BME280;10956;48.878;13.316;2023-02-13T09:55:50;96107.38;;;5.75;100.00
21588;BME280;10956;48.878;13.316;2023-02-13T09:58:40;96107.81;;;5.78;100.00
21588;BME280;10956;48.878;13.316;2023-02-13T10:09:52;96112.00;;;5.94;100.00
21588;BME280;10956;48.878;13.316;2023-02-13T10:18:31;96107.56;;;5.95;100.00
21588;BME280;10956;48.878;13.316;2023-02-13T10:21:00;96114.00;;;5.92;100.00
21588;BME280;10956;48.878;13.316;2023-02-13T10:23:32;96114.91;;;5.84;100.00
21588;BME280;10956;48.878;13.316;2023-02-13T10:26:05;96109.88;;;5.83;100.00
21588;BME280;10956;48.878;13.316;2023-02-13T10:28:51;96109.00;;;5.76;100.00
21588;BME280;10956;48.878;13.316;2023-02-13T10:31:39;96116.72;;;5.84;100.00
21588;BME280;10956;48.878;13.316;2023-02-13T10:34:11;96114.00;;;5.92;100.00
21588;BME280;10956;48.878;13.316;2023-02-13T10:36:43;96112.19;;;5.93;100.00
21588;BME280;10956;48.878;13.316;2023-02-13T10:39:26;96117.22;;;5.94;100.00
21588;BME280;10956;48.878;13.316;2023-02-13T10:42:25;96114.00;;;5.92;100.00
21588;BME280;10956;48.878;13.316;2023-02-13T10:47:49;96121.72;;;6.00;100.00
21588;BME280;10956;48.878;13.316;2023-02-13T10:50:26;96114.47;;;6.02;100.00
21588;BME280;10956;48.878;13.316;2023-02-13T10:53:25;96110.47;;;6.06;100.00
21588;BME280;10956;48.878;13.316;2023-02-13T10:56:05;96111.94;;;6.15;100.00
21588;BME280;10956;48.878;13.316;2023-02-13T10:58:50;96115.00;;;6.19;100.00
21588;BME280;10956;48.878;13.316;2023-02-13T11:01:25;96103.09;;;6.17;100.00
21588;BME280;10956;48.878;13.316;2023-02-13T11:04:12;96107.75;;;6.21;100.00
21588;BME280;10956;48.878;13.316;2023-02-13T11:09:19;96106.19;;;6.27;100.00
21588;BME280;10956;48.878;13.316;2023-02-13T11:11:45;96102.38;;;6.29;100.00
21588;BME280;10956;48.878;13.316;2023-02-13T11:14:19;96103.78;;;6.32;100.00
21588;BME280;10956;48.878;13.316;2023-02-13T11:16:58;96096.94;;;6.31;100.00
21588;BME280;10956;48.878;13.316;2023-02-13T11:19:38;96101.41;;;6.37;100.00
21588;BME280;10956;48.878;13.316;2023-02-13T11:22:11;96105.03;;;6.36;100.00
21588;BME280;10956;48.878;13.316;2023-02-13T11:24:39;96103.03;;;6.38;100.00
21588;BME280;10956;48.878;13.316;2023-02-13T11:27:08;96097.41;;;6.41;100.00
21588;BME280;10956;48.878;13.316;2023-02-13T11:30:00;96094.63;;;6.49;100.00
21588;BME280;10956;48.878;13.316;2023-02-13T11:32:29;96089.78;;;6.46;100.00
21588;BME280;10956;48.878;13.316;2023-02-13T11:34:55;96097.44;;;6.47;100.00
21588;BME280;10956;48.878;13.316;2023-02-13T11:37:26;96099.06;;;6.48;100.00
21588;BME280;10956;48.878;13.316;2023-02-13T11:39:57;96103.88;;;6.45;100.00
21588;BME280;10956;48.878;13.316;2023-02-13T11:42:26;96103.03;;;6.38;100.00
21588;BME280;10956;48.878;13.316;2023-02-13T11:45:29;96098.41;;;6.40;100.00
21588;BME280;10956;48.878;13.316;2023-02-13T11:47:55;96103.84;;;6.38;100.00
21588;BME280;10956;48.878;13.316;2023-02-13T11:50:31;96108.25;;;6.38;100.00
21588;BME280;10956;48.878;13.316;2023-02-13T11:53:02;96109.50;;;6.42;100.00
21588;BME280;10956;48.878;13.316;2023-02-13T11:55:34;96106.72;;;6.50;100.00
21588;BME280;10956;48.878;13.316;2023-02-13T11:58:03;96105.09;;;6.49;100.00
21588;BME280;10956;48.878;13.316;2023-02-13T12:00:34;96099.88;;;6.49;100.00
21588;BME280;10956;48.878;13.316;2023-02-13T12:06:03;96090.22;;;6.56;100.00
21588;BME280;10956;48.878;13.316;2023-02-13T12:08:32;96096.13;;;6.65;100.00
21588;BME280;10956;48.878;13.316;2023-02-13T12:10:59;96085.84;;;6.63;100.00
21588;BME280;10956;48.878;13.316;2023-02-13T12:13:34;96089.06;;;6.65;100.00
21588;BME280;10956;48.878;13.316;2023-02-13T12:16:07;96083.81;;;6.65;100.00
21588;BME280;10956;48.878;13.316;2023-02-13T12:18:39;96080.69;;;6.42;100.00
21588;BME280;10956;48.878;13.316;2023-02-13T12:37:23;96062.03;;;6.58;100.00
21588;BME280;10956;48.878;13.316;2023-02-13T12:42:50;96053.78;;;6.61;100.00
21588;BME280;10956;48.878;13.316;2023-02-13T12:51:23;96047.59;;;6.75;100.00
21588;BME280;10956;48.878;13.316;2023-02-13T12:56:26;96046.34;;;6.71;100.00
21588;BME280;10956;48.878;13.316;2023-02-13T13:05:15;96038.28;;;6.66;100.00
21588;BME280;10956;48.878;13.316;2023-02-13T13:08:18;96043.13;;;6.69;100.00
21588;BME280;10956;48.878;13.316;2023-02-13T13:21:47;96057.56;;;6.52;100.00
21588;BME280;10956;48.878;13.316;2023-02-13T13:27:10;96053.94;;;6.53;100.00
21588;BME280;10956;48.878;13.316;2023-02-13T13:29:44;96058.75;;;6.50;100.00
21588;BME280;10956;48.878;13.316;2023-02-13T13:32:16;96065.59;;;6.44;100.00
21588;BME280;10956;48.878;13.316;2023-02-13T13:34:44;96065.94;;;6.34;100.00
21588;BME280;10956;48.878;13.316;2023-02-13T13:37:16;96063.28;;;6.28;100.00
21588;BME280;10956;48.878;13.316;2023-02-13T13:39:54;96059.06;;;6.27;100.00
21588;BME280;10956;48.878;13.316;2023-02-13T13:45:04;96054.19;;;6.24;100.00
21588;BME280;10956;48.878;13.316;2023-02-13T13:47:40;96047.34;;;6.23;100.00
21588;BME280;10956;48.878;13.316;2023-02-13T13:50:19;96054.59;;;6.21;100.00
21588;BME280;10956;48.878;13.316;2023-02-13T13:59:02;96038.41;;;6.10;100.00
21588;BME280;10956;48.878;13.316;2023-02-13T14:01:17;96037.81;;;6.08;100.00
21588;BME280;10956;48.878;13.316;2023-02-13T14:03:49;96044.03;;;6.07;100.00
21588;BME280;10956;48.878;13.316;2023-02-13T14:06:17;96038.38;;;6.04;100.00
21588;BME280;10956;48.878;13.316;2023-02-13T14:08:51;96041.19;;;6.02;100.00
21588;BME280;10956;48.878;13.316;2023-02-13T14:11:40;96036.34;;;5.99;100.00
21588;BME280;10956;48.878;13.316;2023-02-13T14:16:57;96033.09;;;5.97;100.00
21588;BME280;10956;48.878;13.316;2023-02-13T14:19:35;96026.47;;;6.01;100.00
21588;BME280;10956;48.878;13.316;2023-02-13T14:22:24;96033.72;;;5.99;100.00
21588;BME280;10956;48.878;13.316;2023-02-13T14:25:22;96025.88;;;5.99;100.00
21588;BME280;10956;48.878;13.316;2023-02-13T14:27:57;96034.72;;;5.98;100.00
21588;BME280;10956;48.878;13.316;2023-02-13T14:30:29;96029.88;;;5.95;100.00
21588;BME280;10956;48.878;13.316;2023-02-13T14:33:00;96030.88;;;5.94;100.00
21588;BME280;10956;48.878;13.316;2023-02-13T14:35:29;96031.88;;;5.93;100.00
21588;BME280;10956;48.878;13.316;2023-02-13T14:38:04;96027.81;;;5.91;100.00
21588;BME280;10956;48.878;13.316;2023-02-13T14:40:51;96029.38;;;5.85;100.00
21588;BME280;10956;48.878;13.316;2023-02-13T14:43:31;96023.91;;;5.80;100.00
21588;BME280;10956;48.878;13.316;2023-02-13T14:51:32;96023.44;;;5.70;100.00
21588;BME280;10956;48.878;13.316;2023-02-13T14:54:03;96028.84;;;5.68;100.00
21588;BME280;10956;48.878;13.316;2023-02-13T14:56:30;96015.91;;;5.60;100.00
21588;BME280;10956;48.878;13.316;2023-02-13T14:59:12;96023.34;;;5.57;100.00
21588;BME280;10956;48.878;13.316;2023-02-13T15:01:58;96020.28;;;5.53;100.00
21588;BME280;10956;48.878;13.316;2023-02-13T15:04:31;96026.09;;;5.48;100.00
21588;BME280;10956;48.878;13.316;2023-02-13T15:07:01;96014.75;;;5.41;100.00
21588;BME280;10956;48.878;13.316;2023-02-13T15:09:34;96017.75;;;5.38;100.00
21588;BME280;10956;48.878;13.316;2023-02-13T15:12:03;96016.13;;;5.37;100.00
21588;BME280;10956;48.878;13.316;2023-02-13T15:14:31;96026.22;;;5.40;100.00
21588;BME280;10956;48.878;13.316;2023-02-13T15:17:02;96021.38;;;5.37;100.00